Time;durP1;ratioP1;P1;durP2;ratioP2;P2;SDS_P1;SDS_P2;PMS_P1;PMS_P2;Temp;Humidity;BMP_temperature;BMP_pressure;BME280_temperature;BME280_humidity;BME280_pressure;Samples;Min_cycle;Max_cycle;Signal;HPM_P1;HPM_P2
2021/01/29 00:01:18;;;;;;;0.90;0.63;;;20.70;21.30;;;;;;5038695;28;20951;-51
2021/01/29 00:03:44;;;;;;;0.83;0.70;;;20.70;21.30;;;;;;5056223;28;20163;-51
2021/01/29 00:06:12;;;;;;;0.57;0.50;;;20.70;21.30;;;;;;5054932;28;20407;-50
2021/01/29 00:08:38;;;;;;;1.23;0.45;;;20.70;21.30;;;;;;5037925;28;20209;-50
2021/01/29 00:11:06;;;;;;;1.33;0.87;;;20.60;21.30;;;;;;5056218;28;20618;-50
2021/01/29 00:13:31;;;;;;;0.90;0.80;;;20.70;21.30;;;;;;5055932;28;20539;-51
2021/01/29 00:15:59;;;;;;;0.60;0.60;;;20.60;21.30;;;;;;5055910;28;20673;-50
2021/01/29 00:18:25;;;;;;;1.98;0.73;;;20.60;21.30;;;;;;5056015;28;20160;-51
2021/01/29 00:20:52;;;;;;;0.97;0.50;;;20.70;21.30;;;;;;5056046;28;20686;-52
2021/01/29 00:23:19;;;;;;;0.88;0.77;;;20.60;21.30;;;;;;5055552;28;20756;-51
2021/01/29 00:25:50;;;;;;;0.73;0.55;;;20.60;21.30;;;;;;5038336;28;20174;-51
2021/01/29 00:28:17;;;;;;;2.45;0.90;;;20.60;21.30;;;;;;5055709;28;20179;-50
2021/01/29 00:30:44;;;;;;;0.90;0.60;;;20.60;21.80;;;;;;5055965;28;20156;-50
2021/01/29 00:33:15;;;;;;;0.73;0.60;;;20.60;21.30;;;;;;5037572;28;20250;-50
2021/01/29 00:35:43;;;;;;;0.73;0.50;;;20.60;21.30;;;;;;5055701;28;20189;-51
2021/01/29 00:38:10;;;;;;;0.80;0.60;;;20.60;21.30;;;;;;5055004;28;20603;-51
2021/01/29 00:40:36;;;;;;;0.93;0.82;;;20.60;21.30;;;;;;5055642;28;20171;-51
2021/01/29 00:43:03;;;;;;;0.95;0.50;;;20.60;21.30;;;;;;5055352;28;20151;-51
2021/01/29 00:45:31;;;;;;;1.25;0.82;;;20.60;21.30;;;;;;5055378;28;20151;-50
2021/01/29 00:47:57;;;;;;;0.60;0.50;;;20.60;21.30;;;;;;5055500;28;20200;-51
2021/01/29 00:50:23;;;;;;;1.17;0.70;;;20.60;21.30;;;;;;5055386;28;20159;-50
2021/01/29 00:52:49;;;;;;;0.85;0.57;;;20.60;21.30;;;;;;5036742;28;20171;-51
2021/01/29 00:55:17;;;;;;;0.60;0.57;;;20.60;21.30;;;;;;5055100;28;20159;-51
2021/01/29 00:57:43;;;;;;;1.13;0.80;;;20.60;21.40;;;;;;5055143;28;20625;-52
2021/01/29 01:00:11;;;;;;;0.70;0.57;;;20.60;21.40;;;;;;5060702;28;20265;-50
2021/01/29 01:02:37;;;;;;;0.70;0.60;;;20.60;21.40;;;;;;5074812;28;20177;-50
2021/01/29 01:05:04;;;;;;;0.63;0.53;;;20.60;21.40;;;;;;5057123;28;20166;-51
2021/01/29 01:07:30;;;;;;;0.85;0.65;;;20.60;21.40;;;;;;5074506;28;20220;-50
2021/01/29 01:09:56;;;;;;;0.70;0.70;;;20.60;21.40;;;;;;5074479;28;20191;-51
2021/01/29 01:12:25;;;;;;;0.70;0.60;;;20.60;21.40;;;;;;5074780;28;20570;-51
2021/01/29 01:14:52;;;;;;;0.50;0.40;;;20.60;21.40;;;;;;5075121;28;20163;-50
2021/01/29 01:17:18;;;;;;;0.95;0.60;;;20.60;21.40;;;;;;5074617;28;20598;-51
2021/01/29 01:19:44;;;;;;;0.60;0.47;;;20.60;21.40;;;;;;5075028;28;20213;-51
2021/01/29 01:22:13;;;;;;;0.80;0.60;;;20.60;21.40;;;;;;5056638;28;20409;-51
2021/01/29 01:24:41;;;;;;;1.17;0.60;;;20.60;21.40;;;;;;5074610;28;20182;-51
2021/01/29 01:27:17;;;;;;;0.80;0.70;;;20.60;21.40;;;;;;5057100;28;20154;-51
2021/01/29 01:29:43;;;;;;;0.65;0.65;;;20.60;21.40;;;;;;5074575;28;20209;-51
2021/01/29 01:32:09;;;;;;;0.70;0.70;;;20.60;21.40;;;;;;5056358;28;20170;-50
2021/01/29 01:34:35;;;;;;;1.08;0.88;;;20.60;21.40;;;;;;5074422;28;20159;-51
2021/01/29 01:37:03;;;;;;;0.90;0.60;;;20.60;21.40;;;;;;5074223;28;20155;-51
2021/01/29 01:39:28;;;;;;;0.98;0.70;;;20.60;21.40;;;;;;5073828;28;20162;-51
2021/01/29 01:41:55;;;;;;;0.90;0.63;;;20.60;21.40;;;;;;5074380;28;20578;-51
2021/01/29 01:44:32;;;;;;;0.70;0.70;;;20.50;21.40;;;;;;5074192;28;20165;-51
2021/01/29 01:47:04;;;;;;;0.82;0.60;;;20.60;21.40;;;;;;5074401;28;20220;-51
2021/01/29 01:49:31;;;;;;;0.77;0.60;;;20.50;21.40;;;;;;5074170;28;20209;-51
2021/01/29 01:52:07;;;;;;;1.10;0.60;;;20.60;21.40;;;;;;5074309;28;20174;-50
2021/01/29 01:54:48;;;;;;;0.77;0.70;;;20.50;21.40;;;;;;5074403;28;20420;-51
2021/01/29 01:57:17;;;;;;;0.73;0.70;;;20.50;21.40;;;;;;5074004;28;20281;-50
2021/01/29 01:59:55;;;;;;;0.60;0.43;;;20.50;21.40;;;;;;5051921;28;20178;-51
2021/01/29 02:02:25;;;;;;;1.17;0.80;;;20.50;21.40;;;;;;5054064;28;20163;-51
2021/01/29 02:04:52;;;;;;;1.70;0.60;;;20.50;21.40;;;;;;5053978;28;20587;-51
2021/01/29 02:07:17;;;;;;;0.80;0.60;;;20.50;21.40;;;;;;5053448;28;20162;-50
2021/01/29 02:09:46;;;;;;;0.67;0.50;;;20.50;21.40;;;;;;5053929;28;20270;-49
2021/01/29 02:12:12;;;;;;;1.00;0.90;;;20.50;21.40;;;;;;5053801;28;20545;-51
2021/01/29 02:14:38;;;;;;;0.70;0.60;;;20.50;21.40;;;;;;5000340;28;20687;-51
2021/01/29 02:17:27;;;;;;;0.70;0.50;;;20.50;21.40;;;;;;5034110;28;20423;-51
2021/01/29 02:20:16;;;;;;;0.82;0.68;;;20.50;21.40;;;;;;5034048;28;20238;-51
2021/01/29 02:22:59;;;;;;;0.80;0.60;;;20.50;21.40;;;;;;5048205;28;20258;-51
2021/01/29 02:25:45;;;;;;;0.60;0.50;;;20.50;21.40;;;;;;5033859;28;20218;-50
2021/01/29 02:28:51;;;;;;;0.50;0.50;;;20.50;21.50;;;;;;5033511;28;20239;-51
2021/01/29 02:31:38;;;;;;;0.50;0.47;;;20.50;21.40;;;;;;5033704;28;20159;-50
2021/01/29 02:34:15;;;;;;;0.50;0.50;;;20.50;21.50;;;;;;5033606;28;20152;-51
2021/01/29 02:37:02;;;;;;;0.70;0.52;;;20.50;21.40;;;;;;5033664;28;20159;-50
2021/01/29 02:39:56;;;;;;;1.73;0.73;;;20.50;21.40;;;;;;5033008;28;20152;-50
2021/01/29 02:42:46;;;;;;;0.50;0.50;;;20.50;21.40;;;;;;5010335;28;20183;-51
2021/01/29 02:45:24;;;;;;;0.80;0.50;;;20.50;21.40;;;;;;5033517;28;20480;-50
2021/01/29 02:48:08;;;;;;;0.60;0.50;;;20.50;21.40;;;;;;5033417;28;20162;-50
2021/01/29 02:50:47;;;;;;;0.68;0.60;;;20.50;21.40;;;;;;5033417;28;20164;-51
2021/01/29 02:53:38;;;;;;;0.60;0.60;;;20.50;21.50;;;;;;5032943;28;20179;-50
2021/01/29 02:56:16;;;;;;;0.80;0.50;;;20.50;21.40;;;;;;5015541;28;20171;-50
2021/01/29 02:59:04;;;;;;;0.70;0.60;;;20.50;21.50;;;;;;5033201;28;20190;-52
2021/01/29 03:01:48;;;;;;;0.98;0.60;;;20.50;21.40;;;;;;5033392;28;20522;-50
2021/01/29 03:04:36;;;;;;;0.70;0.50;;;20.50;21.40;;;;;;5033261;28;20198;-50
2021/01/29 03:07:08;;;;;;;0.70;0.60;;;20.50;21.40;;;;;;5032912;28;20168;-50
2021/01/29 03:09:43;;;;;;;0.73;0.60;;;20.50;21.40;;;;;;5033234;28;20710;-51
2021/01/29 03:12:17;;;;;;;1.00;0.70;;;20.50;21.90;;;;;;5033239;28;20164;-50
2021/01/29 03:15:05;;;;;;;0.70;0.70;;;20.50;21.50;;;;;;5053079;28;20222;-50
2021/01/29 03:17:38;;;;;;;0.82;0.50;;;20.50;21.50;;;;;;5044973;28;20183;-50
2021/01/29 03:20:19;;;;;;;0.60;0.57;;;20.50;22.00;;;;;;5053182;28;20163;-53
2021/01/29 03:23:12;;;;;;;0.60;0.50;;;20.50;21.50;;;;;;5052777;28;20163;-51
2021/01/29 03:25:45;;;;;;;0.75;0.52;;;20.50;22.90;;;;;;5043232;28;20179;-51
2021/01/29 03:28:19;;;;;;;0.60;0.60;;;20.20;22.30;;;;;;5052870;28;20162;-50
2021/01/29 03:30:48;;;;;;;0.80;0.50;;;20.50;21.50;;;;;;5053128;28;20174;-51
2021/01/29 03:33:16;;;;;;;0.50;0.50;;;20.50;21.50;;;;;;5054939;28;20154;-50
2021/01/29 03:35:55;;;;;;;1.05;0.80;;;20.50;21.50;;;;;;5056937;28;20159;-50
2021/01/29 03:38:24;;;;;;;0.60;0.60;;;20.50;21.40;;;;;;5056305;28;20154;-52
2021/01/29 03:41:12;;;;;;;0.50;0.40;;;20.50;21.50;;;;;;5056664;28;20151;-51
2021/01/29 03:44:11;;;;;;;0.60;0.60;;;20.50;21.50;;;;;;5056495;28;20230;-50
2021/01/29 03:46:56;;;;;;;0.60;0.60;;;20.50;21.50;;;;;;5056370;28;20151;-51
2021/01/29 03:49:34;;;;;;;0.60;0.50;;;20.50;21.50;;;;;;5056439;28;20179;-50
2021/01/29 03:52:28;;;;;;;0.70;0.52;;;20.50;21.50;;;;;;5056805;28;20182;-52
2021/01/29 03:55:21;;;;;;;0.90;0.80;;;20.50;21.50;;;;;;5056400;28;20514;-50
2021/01/29 03:58:29;;;;;;;1.42;1.00;;;20.50;22.00;;;;;;5055853;28;20178;-49
2021/01/29 04:01:00;;;;;;;0.63;0.60;;;;;;;;;;5047981;28;20199;-51
2021/01/29 04:03:45;;;;;;;0.57;0.50;;;20.50;21.00;;;;;;5056150;28;20167;-52
2021/01/29 04:06:25;;;;;;;0.65;0.55;;;20.50;21.50;;;;;;5056233;28;20510;-51
2021/01/29 04:09:11;;;;;;;0.57;0.50;;;20.50;21.50;;;;;;5055626;28;20306;-51
2021/01/29 04:11:45;;;;;;;0.90;0.82;;;20.50;21.50;;;;;;5056255;28;20155;-50
2021/01/29 04:14:42;;;;;;;0.75;0.50;;;20.50;22.10;;;;;;5055809;28;20211;-51
2021/01/29 04:17:21;;;;;;;0.60;0.50;;;20.50;21.50;;;;;;5048823;28;20194;-51
2021/01/29 04:19:50;;;;;;;0.55;0.40;;;20.50;21.50;;;;;;5056121;28;20717;-51
2021/01/29 04:22:23;;;;;;;0.57;0.55;;;20.50;21.50;;;;;;5055367;28;20190;-50
2021/01/29 04:25:16;;;;;;;0.80;0.60;;;20.50;21.50;;;;;;5055786;28;20166;-51
2021/01/29 04:27:45;;;;;;;0.50;0.40;;;20.50;21.50;;;;;;5055959;28;20163;-51
2021/01/29 04:30:23;;;;;;;0.80;0.50;;;20.50;21.50;;;;;;5055875;28;20179;-51
2021/01/29 04:32:56;;;;;;;0.70;0.60;;;20.50;21.50;;;;;;5055617;28;20155;-50
2021/01/29 04:35:23;;;;;;;0.60;0.50;;;20.50;21.50;;;;;;5055892;28;20147;-51
2021/01/29 04:38:06;;;;;;;0.60;0.60;;;20.50;21.50;;;;;;5055205;28;20155;-51
2021/01/29 04:40:56;;;;;;;0.60;0.30;;;20.50;21.50;;;;;;5055701;28;20599;-51
2021/01/29 04:43:45;;;;;;;0.75;0.55;;;20.50;21.50;;;;;;5037345;28;20202;-51
2021/01/29 04:46:27;;;;;;;0.57;0.55;;;20.50;21.50;;;;;;5055133;28;20185;-50
2021/01/29 04:49:11;;;;;;;0.60;0.57;;;20.50;21.50;;;;;;5055384;28;20182;-51
2021/01/29 04:52:00;;;;;;;0.68;0.50;;;20.50;21.50;;;;;;5055367;28;20158;-51
2021/01/29 04:54:59;;;;;;;0.70;0.50;;;20.50;21.50;;;;;;5054547;28;20190;-51
2021/01/29 04:57:51;;;;;;;0.73;0.52;;;20.50;21.50;;;;;;5055490;28;20676;-51
2021/01/29 05:00:47;;;;;;;0.80;0.60;;;20.50;21.50;;;;;;5053851;28;20167;-51
2021/01/29 05:03:31;;;;;;;1.08;0.65;;;20.50;21.60;;;;;;5055014;28;20648;-50
2021/01/29 05:06:33;;;;;;;0.80;0.70;;;20.40;21.40;;;;;;5055106;28;20186;-52
2021/01/29 05:09:02;;;;;;;0.73;0.50;;;20.50;21.50;;;;;;5054462;28;20658;-50
2021/01/29 05:11:49;;;;;;;0.50;0.47;;;20.50;21.60;;;;;;5055123;28;20178;-51
2021/01/29 05:14:36;;;;;;;0.50;0.50;;;20.40;21.50;;;;;;5054710;28;20734;-50
2021/01/29 05:17:26;;;;;;;0.50;0.40;;;20.40;21.50;;;;;;5054912;28;20163;-50
2021/01/29 05:20:21;;;;;;;0.50;0.50;;;20.40;21.50;;;;;;5053590;28;20178;-51
2021/01/29 05:22:52;;;;;;;0.70;0.60;;;20.40;21.50;;;;;;5054149;28;20155;-51
2021/01/29 05:26:12;;;;;;;0.77;0.77;;;20.40;21.50;;;;;;5054679;28;20164;-50
2021/01/29 05:29:02;;;;;;;0.73;0.57;;;20.40;21.50;;;;;;4993141;28;20205;-51
2021/01/29 05:31:46;;;;;;;1.10;0.75;;;20.40;21.50;;;;;;5015085;28;20248;-51
2021/01/29 05:34:36;;;;;;;0.55;0.40;;;20.40;21.50;;;;;;5054534;28;20709;-51
2021/01/29 05:37:17;;;;;;;0.60;0.45;;;20.50;21.60;;;;;;5054415;28;20503;-51
2021/01/29 05:40:19;;;;;;;0.50;0.50;;;19.90;27.30;;;;;;5054455;28;20155;-51
2021/01/29 05:43:02;;;;;;;0.90;0.60;;;20.50;22.80;;;;;;5054471;28;20154;-50
2021/01/29 05:45:28;;;;;;;0.50;0.40;;;20.40;21.60;;;;;;5054389;28;20166;-50
2021/01/29 05:48:20;;;;;;;0.80;0.80;;;20.40;21.60;;;;;;5054111;28;20156;-51
2021/01/29 05:51:23;;;;;;;0.60;0.60;;;20.40;21.60;;;;;;5054235;28;20155;-50
2021/01/29 05:54:27;;;;;;;0.73;0.70;;;20.40;21.60;;;;;;5053649;28;20215;-50
2021/01/29 05:57:20;;;;;;;0.55;0.43;;;20.40;21.60;;;;;;5025707;28;20253;-50
2021/01/29 05:59:46;;;;;;;0.50;0.40;;;20.40;21.60;;;;;;5053901;28;20518;-51
2021/01/29 06:02:46;;;;;;;0.50;0.40;;;20.40;23.20;;;;;;5053834;28;20151;-51
2021/01/29 06:05:36;;;;;;;0.85;0.65;;;20.40;21.60;;;;;;5053740;28;20163;-50
2021/01/29 06:08:35;;;;;;;0.70;0.50;;;20.40;21.60;;;;;;5053356;28;20187;-51
2021/01/29 06:11:32;;;;;;;0.70;0.60;;;20.40;21.60;;;;;;5053920;28;20598;-51
2021/01/29 06:14:29;;;;;;;1.55;0.40;;;20.40;21.60;;;;;;5053485;28;20577;-50
2021/01/29 06:17:24;;;;;;;0.50;0.43;;;20.40;21.70;;;;;;5054424;28;20167;-51
2021/01/29 06:19:50;;;;;;;0.60;0.55;;;20.40;21.70;;;;;;5031600;28;20190;-50
2021/01/29 06:22:55;;;;;;;0.63;0.50;;;22.30;23.10;;;;;;5052870;28;20158;-51
2021/01/29 06:25:46;;;;;;;0.68;0.50;;;20.40;21.80;;;;;;5053581;28;20174;-50
2021/01/29 06:28:41;;;;;;;0.50;0.40;;;20.40;21.70;;;;;;5053673;28;20217;-50
2021/01/29 06:31:25;;;;;;;0.63;0.45;;;20.40;21.70;;;;;;5053551;28;20221;-51
2021/01/29 06:34:09;;;;;;;0.80;0.60;;;20.40;21.70;;;;;;5053341;28;20204;-51
2021/01/29 06:36:50;;;;;;;0.60;0.40;;;20.40;21.70;;;;;;5053357;28;20280;-50
2021/01/29 06:39:24;;;;;;;0.80;0.63;;;20.40;21.70;;;;;;5052942;28;20243;-50
2021/01/29 06:42:00;;;;;;;0.73;0.70;;;20.40;21.80;;;;;;5053534;28;20162;-50
2021/01/29 06:44:41;;;;;;;0.70;0.60;;;20.40;21.80;;;;;;5053233;28;20163;-50
2021/01/29 06:47:42;;;;;;;0.60;0.50;;;20.40;21.80;;;;;;5053371;28;20181;-50
2021/01/29 06:50:23;;;;;;;1.30;1.05;;;20.40;21.80;;;;;;5053037;28;20186;-50
2021/01/29 06:53:15;;;;;;;0.57;0.52;;;20.40;21.80;;;;;;5052989;28;20159;-51
2021/01/29 06:55:59;;;;;;;0.70;0.70;;;22.10;23.00;;;;;;5053401;28;20155;-50
2021/01/29 06:59:02;;;;;;;1.20;0.68;;;20.40;21.80;;;;;;5053347;28;20159;-51
2021/01/29 07:01:43;;;;;;;1.00;0.90;;;20.40;21.80;;;;;;5053028;28;20205;-50
2021/01/29 07:04:39;;;;;;;0.93;0.65;;;20.40;21.80;;;;;;5052857;28;20163;-51
2021/01/29 07:07:39;;;;;;;0.68;0.60;;;20.40;21.80;;;;;;5053118;28;20213;-51
2021/01/29 07:10:32;;;;;;;1.80;0.90;;;20.40;21.80;;;;;;5056951;28;20178;-51
2021/01/29 07:13:10;;;;;;;0.80;0.50;;;20.40;21.80;;;;;;5056739;28;20666;-50
2021/01/29 07:15:54;;;;;;;0.80;0.70;;;20.40;21.80;;;;;;5056768;28;20209;-51
2021/01/29 07:18:59;;;;;;;1.17;0.40;;;20.40;22.40;;;;;;5055809;28;20591;-51
2021/01/29 07:21:51;;;;;;;0.60;0.60;;;20.40;21.80;;;;;;5056872;28;20598;-52
2021/01/29 07:24:44;;;;;;;0.70;0.50;;;20.40;21.80;;;;;;5056332;28;20159;-51
2021/01/29 07:27:47;;;;;;;0.90;0.60;;;20.40;21.80;;;;;;5056516;28;20159;-51
2021/01/29 07:30:39;;;;;;;0.90;0.57;;;20.40;21.80;;;;;;5038684;28;20666;-51
2021/01/29 07:33:37;;;;;;;0.88;0.70;;;20.50;21.90;;;;;;5056359;28;20201;-51
2021/01/29 07:36:40;;;;;;;1.20;0.80;;;20.50;21.80;;;;;;5048126;28;20180;-50
2021/01/29 07:39:35;;;;;;;0.60;0.60;;;20.50;21.80;;;;;;5055961;28;20159;-51
2021/01/29 07:42:09;;;;;;;0.98;0.70;;;20.50;21.80;;;;;;5056584;28;20261;-51
2021/01/29 07:45:04;;;;;;;0.60;0.50;;;20.50;21.80;;;;;;5056329;28;20181;-50
2021/01/29 07:48:03;;;;;;;1.13;0.80;;;20.50;21.80;;;;;;5037360;28;20163;-51
2021/01/29 07:50:48;;;;;;;0.93;0.82;;;20.50;21.70;;;;;;4995076;28;20218;-50
2021/01/29 07:53:39;;;;;;;0.82;0.70;;;20.50;21.70;;;;;;5051447;28;20233;-51
2021/01/29 07:56:32;;;;;;;0.80;0.80;;;20.50;21.70;;;;;;5036983;28;20197;-51
2021/01/29 07:59:01;;;;;;;0.60;0.60;;;20.50;21.70;;;;;;5046214;28;20609;-51
2021/01/29 08:01:35;;;;;;;0.70;0.63;;;20.50;21.70;;;;;;5028768;28;20256;-51
2021/01/29 08:04:13;;;;;;;0.73;0.73;;;21.30;22.20;;;;;;5045446;28;20165;-51
2021/01/29 08:06:53;;;;;;;1.08;0.57;;;21.10;22.10;;;;;;5045783;28;20163;-51
2021/01/29 08:09:32;;;;;;;2.10;0.93;;;20.60;21.70;;;;;;5051589;28;20198;-51
2021/01/29 08:12:05;;;;;;;1.13;0.70;;;20.60;21.70;;;;;;5045315;28;20176;-50
2021/01/29 08:15:12;;;;;;;0.70;0.50;;;20.60;21.70;;;;;;5015701;28;20211;-52
2021/01/29 08:18:24;;;;;;;0.70;0.65;;;20.60;21.60;;;;;;5028926;28;20201;-51
2021/01/29 08:21:14;;;;;;;0.82;0.60;;;20.60;23.00;;;;;;5031055;28;20686;-52
2021/01/29 08:23:40;;;;;;;1.50;1.02;;;20.70;21.60;;;;;;5030677;28;20172;-51
2021/01/29 08:26:24;;;;;;;1.10;0.70;;;20.70;21.10;;;;;;5018261;28;20175;-51
2021/01/29 08:28:58;;;;;;;1.30;0.60;;;20.70;21.60;;;;;;5044065;28;20675;-51
2021/01/29 08:31:34;;;;;;;1.02;0.60;;;20.70;21.50;;;;;;5030580;28;20163;-51
2021/01/29 08:34:21;;;;;;;1.50;0.80;;;20.70;21.00;;;;;;5031594;28;20176;-51
2021/01/29 08:37:23;;;;;;;0.80;0.68;;;20.70;21.50;;;;;;5030647;28;20163;-51
2021/01/29 08:40:13;;;;;;;1.25;0.80;;;20.70;21.40;;;;;;5027711;28;20262;-51
2021/01/29 08:42:48;;;;;;;1.85;1.00;;;20.70;21.50;;;;;;5032072;28;20167;-52
2021/01/29 08:45:41;;;;;;;0.70;0.60;;;20.80;21.50;;;;;;5032404;28;20503;-52
2021/01/29 08:48:31;;;;;;;1.05;0.77;;;20.70;21.30;;;;;;5026991;28;20167;-51
2021/01/29 08:51:27;;;;;;;1.00;0.60;;;20.80;21.40;;;;;;5026911;28;20172;-51
2021/01/29 08:54:15;;;;;;;1.13;0.73;;;20.80;21.40;;;;;;5026680;28;20675;-51
2021/01/29 08:56:50;;;;;;;1.45;0.73;;;20.80;21.40;;;;;;5013970;28;21738;-51
2021/01/29 08:59:18;;;;;;;1.35;0.77;;;20.80;21.30;;;;;;5025087;28;20174;-51
2021/01/29 09:01:59;;;;;;;2.47;0.70;;;20.80;21.30;;;;;;5006545;28;20187;-50
2021/01/29 09:04:45;;;;;;;1.02;0.45;;;20.80;20.90;;;;;;5031512;28;20202;-51
2021/01/29 09:07:19;;;;;;;1.50;0.68;;;20.80;21.30;;;;;;5024061;28;20186;-51
2021/01/29 09:09:46;;;;;;;1.27;0.50;;;20.80;21.30;;;;;;5029437;28;20217;-50
2021/01/29 09:12:25;;;;;;;0.95;0.70;;;20.80;21.20;;;;;;5029623;28;20163;-51
2021/01/29 09:15:03;;;;;;;1.10;0.73;;;20.90;21.30;;;;;;5026865;28;20210;-50
2021/01/29 09:17:46;;;;;;;0.75;0.75;;;20.90;21.20;;;;;;5031288;28;20174;-51
2021/01/29 09:20:13;;;;;;;1.98;0.93;;;20.90;21.10;;;;;;5028969;28;20175;-51
2021/01/29 09:23:03;;;;;;;0.80;0.55;;;20.90;21.00;;;;;;5035588;28;20171;-51
2021/01/29 09:25:53;;;;;;;1.75;1.15;;;20.90;21.00;;;;;;5030807;28;20180;-50
2021/01/29 09:28:28;;;;;;;1.27;0.70;;;20.90;20.90;;;;;;5033192;28;20168;-50
2021/01/29 09:31:19;;;;;;;1.15;0.90;;;20.90;20.90;;;;;;5035786;28;20159;-50
2021/01/29 09:34:10;;;;;;;0.90;0.77;;;21.00;20.90;;;;;;5037608;28;20178;-50
2021/01/29 09:36:51;;;;;;;0.65;0.50;;;21.00;20.90;;;;;;5030637;28;20168;-52
2021/01/29 09:39:26;;;;;;;0.90;0.68;;;21.00;20.90;;;;;;5032123;28;20263;-50
2021/01/29 09:42:07;;;;;;;0.70;0.65;;;22.00;21.60;;;;;;5027693;28;20689;-51
2021/01/29 09:44:47;;;;;;;1.08;0.70;;;21.00;20.90;;;;;;5031959;28;20221;-50
2021/01/29 09:47:21;;;;;;;1.00;0.50;;;21.00;21.40;;;;;;5031871;28;20263;-50
2021/01/29 09:49:48;;;;;;;0.52;0.50;;;21.00;20.90;;;;;;5037222;28;20217;-51
2021/01/29 09:52:38;;;;;;;1.00;0.85;;;21.10;21.00;;;;;;5024015;28;20218;-51
2021/01/29 09:55:10;;;;;;;1.50;0.80;;;21.10;21.00;;;;;;5028800;28;20632;-51
2021/01/29 09:57:45;;;;;;;1.52;0.88;;;21.10;21.00;;;;;;5036034;28;20182;-51
2021/01/29 10:00:19;;;;;;;0.70;0.70;;;21.10;21.00;;;;;;5027756;28;20193;-51
2021/01/29 10:02:58;;;;;;;0.65;0.60;;;21.10;21.50;;;;;;5006782;28;20262;-50
2021/01/29 10:05:24;;;;;;;0.70;0.60;;;21.20;21.10;;;;;;5035038;28;21752;-51
2021/01/29 10:07:57;;;;;;;0.80;0.60;;;21.20;21.00;;;;;;5033452;28;20550;-51
2021/01/29 10:10:31;;;;;;;1.45;0.75;;;21.30;21.10;;;;;;5028599;28;20768;-52
2021/01/29 10:13:09;;;;;;;1.55;0.80;;;21.30;21.00;;;;;;5040912;28;20215;-52
2021/01/29 10:15:39;;;;;;;1.48;0.90;;;21.30;20.90;;;;;;5041069;28;20238;-50
2021/01/29 10:18:16;;;;;;;1.55;0.60;;;21.30;20.70;;;;;;5049650;28;20229;-51
2021/01/29 10:20:43;;;;;;;2.17;0.90;;;21.30;20.70;;;;;;5037660;28;20159;-51
2021/01/29 10:23:50;;;;;;;0.98;0.60;;;21.30;20.70;;;;;;5047589;28;20197;-51
2021/01/29 10:26:34;;;;;;;0.98;0.70;;;21.30;20.70;;;;;;5047700;28;20171;-51
2021/01/29 10:29:19;;;;;;;0.77;0.65;;;21.30;20.70;;;;;;5047348;28;20558;-51
2021/01/29 10:31:54;;;;;;;0.73;0.65;;;21.30;20.60;;;;;;5047597;28;20159;-53
2021/01/29 10:34:23;;;;;;;0.80;0.70;;;21.30;20.60;;;;;;5047736;28;20174;-53
2021/01/29 10:37:00;;;;;;;0.70;0.65;;;21.30;20.10;;;;;;5056879;28;20301;-52
2021/01/29 10:39:29;;;;;;;1.98;0.73;;;21.30;20.60;;;;;;5037250;28;20254;-51
2021/01/29 10:42:20;;;;;;;1.02;0.70;;;21.30;20.60;;;;;;5042051;28;20246;-51
2021/01/29 10:44:51;;;;;;;0.80;0.60;;;21.30;20.60;;;;;;5051198;28;20197;-51
2021/01/29 10:47:37;;;;;;;1.02;0.80;;;21.30;20.60;;;;;;5048277;28;20528;-51
2021/01/29 10:50:13;;;;;;;1.58;0.85;;;21.30;20.60;;;;;;5043789;28;20202;-50
2021/01/29 10:53:04;;;;;;;0.65;0.65;;;21.30;20.60;;;;;;5047207;28;20254;-54
2021/01/29 10:55:34;;;;;;;0.80;0.80;;;21.30;20.60;;;;;;5048714;28;20236;-50
2021/01/29 10:58:22;;;;;;;1.92;0.68;;;21.30;20.60;;;;;;5048557;28;20282;-51
2021/01/29 11:01:00;;;;;;;1.50;0.77;;;21.40;20.60;;;;;;5044454;28;20159;-50
2021/01/29 11:03:55;;;;;;;0.68;0.60;;;21.40;20.50;;;;;;5070526;28;20194;-51
2021/01/29 11:06:27;;;;;;;0.80;0.60;;;21.40;20.40;;;;;;5042645;28;20194;-50
2021/01/29 11:09:01;;;;;;;1.00;0.73;;;21.50;20.50;;;;;;5048775;28;20221;-51
2021/01/29 11:11:33;;;;;;;0.82;0.73;;;21.50;20.40;;;;;;5049582;28;20171;-52
2021/01/29 11:14:40;;;;;;;2.50;1.20;;;21.50;20.40;;;;;;5048798;28;20203;-52
2021/01/29 11:17:16;;;;;;;2.38;1.15;;;21.50;19.90;;;;;;5044583;28;20183;-53
2021/01/29 11:19:46;;;;;;;1.80;1.10;;;21.50;20.40;;;;;;5030001;28;20195;-51
2021/01/29 11:22:27;;;;;;;1.60;0.95;;;21.50;20.30;;;;;;5018104;28;20203;-52
2021/01/29 11:25:02;;;;;;;2.05;1.40;;;21.50;20.30;;;;;;5048031;28;20549;-50
2021/01/29 11:27:35;;;;;;;2.00;1.60;;;21.50;20.30;;;;;;5049526;28;20174;-51
2021/01/29 11:30:16;;;;;;;1.42;1.30;;;21.50;20.30;;;;;;5043276;28;20203;-51
2021/01/29 11:32:44;;;;;;;2.50;1.40;;;21.50;20.30;;;;;;5050138;28;20163;-51
2021/01/29 11:35:10;;;;;;;1.95;1.10;;;21.50;20.30;;;;;;5044342;28;20175;-52
2021/01/29 11:37:55;;;;;;;2.37;2.17;;;21.60;20.30;;;;;;5050137;28;20171;-51
2021/01/29 11:40:32;;;;;;;3.45;1.90;;;21.50;20.20;;;;;;5047668;28;21358;-51
2021/01/29 11:43:05;;;;;;;2.35;1.70;;;21.50;20.20;;;;;;5045199;28;20178;-52
2021/01/29 11:45:36;;;;;;;3.45;1.95;;;21.60;20.30;;;;;;5047137;28;20174;-51
2021/01/29 11:48:15;;;;;;;2.08;1.88;;;21.60;20.20;;;;;;5050756;28;20167;-51
2021/01/29 11:50:59;;;;;;;1.90;1.42;;;21.60;20.20;;;;;;5044417;28;20198;-51
2021/01/29 11:53:35;;;;;;;2.22;1.90;;;21.60;20.20;;;;;;5046114;28;20238;-50
2021/01/29 11:56:08;;;;;;;2.65;1.83;;;21.60;20.20;;;;;;5054696;28;20163;-51
2021/01/29 11:58:44;;;;;;;2.20;1.83;;;21.60;20.10;;;;;;5048166;28;20167;-51
2021/01/29 12:01:21;;;;;;;2.28;2.08;;;21.60;20.00;;;;;;5049285;28;20213;-51
2021/01/29 12:04:22;;;;;;;3.42;2.20;;;21.70;20.10;;;;;;5035700;28;20161;-51
2021/01/29 12:07:09;;;;;;;5.53;1.75;;;21.80;19.50;;;;;;5012138;28;20211;-53
2021/01/29 12:09:50;;;;;;;2.08;1.88;;;21.80;19.90;;;;;;5049896;28;20194;-51
2021/01/29 12:12:45;;;;;;;2.58;2.38;;;21.80;19.90;;;;;;5054062;28;20174;-51
2021/01/29 12:15:33;;;;;;;2.08;1.60;;;21.80;19.90;;;;;;5050690;28;20171;-51
2021/01/29 12:18:01;;;;;;;2.80;2.15;;;21.80;19.80;;;;;;5053190;28;20519;-51
2021/01/29 12:20:30;;;;;;;3.55;2.88;;;21.80;19.80;;;;;;5040857;28;20179;-51
2021/01/29 12:23:10;;;;;;;2.83;2.42;;;21.90;19.80;;;;;;5036376;28;20182;-51
2021/01/29 12:25:49;;;;;;;2.28;1.60;;;21.80;19.80;;;;;;5052604;28;20175;-51
2021/01/29 12:28:29;;;;;;;2.20;1.75;;;21.90;19.80;;;;;;5047696;28;20163;-51
2021/01/29 12:31:07;;;;;;;2.95;2.35;;;21.90;19.80;;;;;;5047876;28;20197;-52
2021/01/29 12:33:54;;;;;;;3.08;2.00;;;21.90;19.80;;;;;;5042920;28;20217;-51
2021/01/29 12:36:23;;;;;;;3.03;1.80;;;21.90;19.80;;;;;;5046969;28;20167;-51
2021/01/29 12:39:01;;;;;;;2.05;1.70;;;21.90;19.70;;;;;;5052005;28;20191;-51
2021/01/29 12:41:43;;;;;;;3.60;2.05;;;21.90;19.70;;;;;;5049027;28;20178;-51
2021/01/29 12:44:35;;;;;;;3.38;2.03;;;21.80;19.70;;;;;;5041441;28;20535;-51
2021/01/29 12:47:16;;;;;;;3.20;2.38;;;21.90;19.80;;;;;;5025299;28;20198;-52
2021/01/29 12:49:59;;;;;;;1.95;1.60;;;21.90;19.80;;;;;;5052648;28;20186;-51
2021/01/29 12:52:38;;;;;;;2.78;1.90;;;21.80;19.70;;;;;;5035340;28;20185;-51
2021/01/29 12:55:10;;;;;;;3.53;2.15;;;21.80;19.80;;;;;;5045813;28;20261;-51
2021/01/29 12:57:36;;;;;;;2.80;1.75;;;21.80;19.80;;;;;;5050643;28;20186;-52
2021/01/29 13:00:20;;;;;;;3.75;1.73;;;21.80;19.90;;;;;;5050073;28;20163;-52
2021/01/29 13:03:03;;;;;;;2.80;1.70;;;21.80;19.90;;;;;;5050556;28;20158;-52
2021/01/29 13:05:59;;;;;;;2.90;2.05;;;21.70;19.40;;;;;;5045380;28;20175;-51
2021/01/29 13:08:59;;;;;;;2.40;2.20;;;21.70;19.90;;;;;;5064718;28;20617;-52
2021/01/29 13:11:30;;;;;;;3.67;2.20;;;21.70;19.90;;;;;;5048907;28;20163;-52
2021/01/29 13:14:23;;;;;;;1.98;1.77;;;21.70;19.90;;;;;;5048866;28;20219;-50
2021/01/29 13:17:14;;;;;;;3.25;2.45;;;21.70;19.90;;;;;;5048268;28;20205;-51
2021/01/29 13:19:40;;;;;;;3.35;1.80;;;21.70;19.90;;;;;;5048606;28;20171;-52
2021/01/29 13:22:37;;;;;;;2.40;1.90;;;21.70;19.90;;;;;;5048291;28;20211;-52
2021/01/29 13:25:02;;;;;;;2.63;1.90;;;21.80;19.90;;;;;;5063646;28;20178;-52
2021/01/29 13:27:35;;;;;;;2.53;1.70;;;21.80;19.80;;;;;;5043753;28;20175;-51
2021/01/29 13:30:29;;;;;;;2.72;2.08;;;21.80;19.80;;;;;;5047114;28;20222;-51
2021/01/29 13:32:56;;;;;;;3.05;2.30;;;21.80;19.80;;;;;;5036971;28;20816;-51
2021/01/29 13:35:33;;;;;;;3.40;1.90;;;21.80;19.80;;;;;;5047470;28;20653;-52
2021/01/29 13:38:26;;;;;;;1.50;1.30;;;21.80;19.80;;;;;;5041728;28;20183;-51
2021/01/29 13:40:52;;;;;;;2.30;2.10;;;21.80;19.80;;;;;;5028783;28;20206;-51
2021/01/29 13:43:29;;;;;;;2.33;2.10;;;21.80;19.70;;;;;;5034404;28;20500;-52
2021/01/29 13:46:01;;;;;;;2.72;2.10;;;21.80;19.70;;;;;;5046830;28;20167;-51
2021/01/29 13:48:28;;;;;;;2.33;2.00;;;21.80;19.70;;;;;;5051164;28;20194;-52
2021/01/29 13:50:56;;;;;;;2.45;1.85;;;21.90;19.70;;;;;;5047763;28;20167;-51
2021/01/29 13:53:28;;;;;;;2.70;1.98;;;21.90;19.70;;;;;;5050526;28;20170;-51
2021/01/29 13:56:21;;;;;;;3.88;2.63;;;21.90;19.60;;;;;;5052052;28;20159;-52